Pagrindinis puslapis
METAR-TAF:

METAR-TAF

Oro uostai :

Big Spring McMahon-Wrinkle Airport

Big Spring, Teksasas, Jungtinės Amerikos Valstijos

platuma: 32-12N, ilguma: 101-31W, Aukštis: 784 m

Dabartinis oras

Ataskaita buvo paskelbta 22 minutes, ne 10:35 UTC
Vėjas 4 kt iš Rytų/Šiaurės Rytų
Temperatūra 16°C
Drėgmė 72%
Slėgis 1023 hPa
Matomumas: 16.1 km
Giedras dangus

METAR: KBPG 291035Z AUTO 07004KT 10SM CLR 16/11 A3021 RMK AO2 T01610110

Laikas: 05:57 (10:57 UTC)


TAF: trūkstamas

Orai ataskaitas ir orų prognozės (METAR, TAF).

turimą stotys yra geltonos ir raudonos taškus žemėlapyje.

Perkelti pele per norėdami pamatyti stoties vardą.

Tada spustelėkite, norėdami matyti oro stebėjimo ir prognozės.

Norėdami pakeisti žemėlapį: spustelėkite ant žalios mygtukų su juodo kryžiaus žemyn,; žalią mygtuką su brūkšneliu, jei norite nutolinti; arba žalių rodyklių gretimoms žemėlapius.


METAR-TAF: